Main page
METAR-TAF:

METAR-TAF

Airports :

Lifuka Island Airport

Lifuka, Tonga

latitude: 19-46-36S, longitude: 174-20-28W, elevation: 9 m

Current weather observation

The report was made 33 minutes ago, at 12:00 UTC
Wind 6 kt from the South
Temperature 26°C
Humidity 94%
Pressure 1009 hPa
Visibility 10 km or more
Few clouds at a height of 900 ft
Scattered clouds at a height of 1700 ft
Broken clouds at a height of 4000 ft

METAR: NFTL 221200Z 18006KT 9999 FEW009 SCT017 BKN040 26/25 Q1009 RESH

Time: 01:33 (12:33 UTC)


TAF: missing

Weather observations and forecasts of more than 4000 airports (METAR and TAF reports).

The available stations are represented by yellow and red dots on the map.

Hover mouse over dot to see the name of the station.

Then click to see weather observations and forecasts.

To change the map : click on the green buttons with a black cross to zoom in, on the green button with a dash to zoom out, or on the green arrows for adjacent maps.


METAR-TAF: